Rome, Wisconsin
Current Conditions -  °F | °C
As of 2:22 PM on Monday 24 Nov 2014 (Local Time) from KISW Reporting Station
Moderate Snow Moderate Snow  
Wind Chill: 19°   Ceiling: 700
Heat Index: 30°   Visibility: 0.25mi
Dew Point: 27°   Wind: 15mph
Humidity: 88%   Direction: 290°WNW
Pressure: 29.29"   Gusts: 21mph
Location:  44.252°N, 89.9853°W
Report Text: KISW 242022Z AUTO 29013G18KT 1/4SM SN FZFG VV007 M01/M03 A2929 RMK AO2 P0001 T10111028 $
Loading
Personal Weather Stations






























Interactive Weather Map New forecast layout! Learn more

10-Day Weather Forecast

Advertisements
Track Severe Weather on mobile